Time;durP1;ratioP1;P1;durP2;ratioP2;P2;SDS_P1;SDS_P2;PMS_P1;PMS_P2;Temp;Humidity;BMP_temperature;BMP_pressure;BME280_temperature;BME280_humidity;BME280_pressure;Samples;Min_cycle;Max_cycle;Signal;HPM_P1;HPM_P2
2022/02/04 00:09:48;;;;;;;;;;;22.70;47.50;;;;;;5062532;28;19917;-64
2022/02/04 00:20:35;;;;;;;;;;;22.70;47.50;;;;;;5063520;28;19967;-61
2022/02/04 00:28:10;;;;;;;;;;;22.60;47.60;;;;;;5064768;28;19920;-67
2022/02/04 00:30:41;;;;;;;;;;;22.60;47.60;;;;;;5058460;28;19920;-63
2022/02/04 00:33:09;;;;;;;;;;;22.60;47.60;;;;;;5099874;28;19912;-66
2022/02/04 00:38:17;;;;;;;;;;;22.50;47.60;;;;;;5065921;28;19932;-63
2022/02/04 00:40:46;;;;;;;;;;;22.50;47.60;;;;;;5066501;28;21960;-63
2022/02/04 00:43:14;;;;;;;;;;;22.50;47.60;;;;;;5061734;28;20068;-66
2022/02/04 00:45:52;;;;;;;;;;;22.50;47.70;;;;;;5064854;28;19917;-67
2022/02/04 00:48:59;;;;;;;;;;;22.50;47.70;;;;;;5064812;28;19923;-62
2022/02/04 00:51:21;;;;;;;;;;;22.40;47.60;;;;;;5063432;28;19978;-61
2022/02/04 00:54:12;;;;;;;;;;;22.40;47.70;;;;;;5065746;28;19927;-61
2022/02/04 00:56:46;;;;;;;;;;;22.40;47.70;;;;;;5067785;28;20425;-63
2022/02/04 01:26:18;;;;;;;;;;;22.20;47.90;;;;;;5067947;28;19966;-62
2022/02/04 01:28:45;;;;;;;;;;;22.10;47.90;;;;;;5063372;28;19967;-66
2022/02/04 01:31:14;;;;;;;;;;;22.10;47.90;;;;;;5067394;28;19919;-64
2022/02/04 01:33:39;;;;;;;;;;;22.10;47.90;;;;;;5064377;28;19947;-65
2022/02/04 01:36:05;;;;;;;;;;;22.10;48.00;;;;;;5066535;28;20780;-65
2022/02/04 01:38:30;;;;;;;;;;;22.00;48.00;;;;;;5065791;28;19916;-64
2022/02/04 01:40:57;;;;;;;;;;;22.00;48.00;;;;;;5065319;28;19921;-61
2022/02/04 01:43:23;;;;;;;;;;;22.00;48.10;;;;;;5064118;28;19921;-65
2022/02/04 01:45:53;;;;;;;;;;;22.00;48.10;;;;;;5066929;28;19916;-66
2022/02/04 01:48:19;;;;;;;;;;;22.00;48.10;;;;;;5065569;28;19916;-61
2022/02/04 01:50:46;;;;;;;;;;;22.00;48.10;;;;;;5065528;28;19913;-67
2022/02/04 01:53:13;;;;;;;;;;;21.90;48.10;;;;;;5066812;28;20385;-64
2022/02/04 01:55:40;;;;;;;;;;;21.90;48.10;;;;;;5066234;28;20054;-63
2022/02/04 01:58:06;;;;;;;;;;;21.90;48.10;;;;;;5063251;28;19917;-67
2022/02/04 02:00:31;;;;;;;;;;;21.90;48.10;;;;;;5065444;28;20233;-62
2022/02/04 02:02:57;;;;;;;;;;;21.90;48.10;;;;;;5066091;28;19917;-65
2022/02/04 02:05:23;;;;;;;;;;;21.90;48.10;;;;;;5064968;28;19916;-61
2022/02/04 02:07:48;;;;;;;;;;;21.90;48.10;;;;;;5065288;28;20024;-66
2022/02/04 02:10:16;;;;;;;;;;;21.90;48.10;;;;;;5066083;28;19935;-61
2022/02/04 02:13:12;;;;;;;;;;;21.80;48.10;;;;;;5064068;28;19965;-63
2022/02/04 02:15:43;;;;;;;;;;;21.80;48.10;;;;;;5064879;28;19916;-66
2022/02/04 02:53:12;;;;;;;;;;;21.60;48.40;;;;;;5065165;28;19956;-62
2022/02/04 02:56:01;;;;;;;;;;;21.60;48.40;;;;;;5064840;28;19917;-67
2022/02/04 02:58:29;;;;;;;;;;;21.60;48.40;;;;;;5064549;28;19920;-66
2022/02/04 03:01:03;;;;;;;;;;;21.60;48.50;;;;;;5061847;28;19922;-61
2022/02/04 03:03:31;;;;;;;;;;;21.60;48.50;;;;;;5061533;28;19920;-62
2022/02/04 03:05:57;;;;;;;;;;;21.50;48.40;;;;;;5064859;28;19916;-63
2022/02/04 03:08:22;;;;;;;;;;;21.60;48.50;;;;;;5063858;28;19916;-64
2022/02/04 03:10:53;;;;;;;;;;;21.50;48.40;;;;;;5061495;28;20364;-61
2022/02/04 03:13:28;;;;;;;;;;;21.50;48.50;;;;;;5061699;28;20436;-63
2022/02/04 03:16:01;;;;;;;;;;;21.50;48.50;;;;;;5061833;28;20070;-62
2022/02/04 03:18:29;;;;;;;;;;;21.50;48.50;;;;;;5064849;28;19920;-61
2022/02/04 03:21:00;;;;;;;;;;;21.50;48.50;;;;;;5061283;28;19990;-62
2022/02/04 03:23:28;;;;;;;;;;;21.50;48.50;;;;;;5064192;28;19928;-65
2022/02/04 03:25:59;;;;;;;;;;;21.40;48.40;;;;;;5062411;28;20016;-63
2022/02/04 03:28:28;;;;;;;;;;;21.50;48.50;;;;;;5063452;28;19939;-66
2022/02/04 03:30:56;;;;;;;;;;;21.50;48.50;;;;;;5062227;28;19992;-66
2022/02/04 03:33:24;;;;;;;;;;;21.40;48.50;;;;;;5064131;28;19919;-61
2022/02/04 03:35:50;;;;;;;;;;;21.40;48.50;;;;;;5064856;28;19986;-63
2022/02/04 03:38:16;;;;;;;;;;;21.40;48.60;;;;;;5064240;28;19928;-63
2022/02/04 03:40:41;;;;;;;;;;;21.40;48.50;;;;;;5064104;28;19913;-67
2022/02/04 03:43:07;;;;;;;;;;;21.40;48.50;;;;;;5060333;28;19995;-67
2022/02/04 03:45:32;;;;;;;;;;;21.40;48.50;;;;;;5064008;28;19942;-65
2022/02/04 03:47:58;;;;;;;;;;;21.40;48.50;;;;;;5062066;28;20008;-61
2022/02/04 03:50:23;;;;;;;;;;;21.40;48.50;;;;;;5063555;28;19912;-66
2022/02/04 03:52:49;;;;;;;;;;;21.40;48.60;;;;;;5065522;28;20059;-64
2022/02/04 03:55:15;;;;;;;;;;;21.40;48.70;;;;;;5064430;28;19978;-66
2022/02/04 03:57:41;;;;;;;;;;;21.40;48.60;;;;;;5064928;28;19924;-62
2022/02/04 04:00:08;;;;;;;;;;;21.40;48.70;;;;;;5063300;28;19913;-61
2022/02/04 04:02:33;;;;;;;;;;;21.30;48.60;;;;;;5066361;28;19917;-66
2022/02/04 04:04:59;;;;;;;;;;;21.30;48.60;;;;;;5068991;28;20015;-64
2022/02/04 04:07:24;;;;;;;;;;;21.30;48.70;;;;;;5069073;28;19920;-63
2022/02/04 04:09:56;;;;;;;;;;;21.30;48.70;;;;;;5068588;28;19959;-62
2022/02/04 04:12:24;;;;;;;;;;;21.30;48.70;;;;;;5067618;28;19916;-65
2022/02/04 04:14:53;;;;;;;;;;;21.30;48.70;;;;;;5063317;28;19920;-67
2022/02/04 04:17:18;;;;;;;;;;;21.30;48.70;;;;;;5070447;28;20334;-62
2022/02/04 04:19:44;;;;;;;;;;;21.30;48.70;;;;;;5067418;28;19917;-67
2022/02/04 04:22:09;;;;;;;;;;;21.20;48.70;;;;;;5066765;28;20011;-67
2022/02/04 04:24:35;;;;;;;;;;;21.20;48.70;;;;;;5065397;28;19931;-63
2022/02/04 04:27:00;;;;;;;;;;;21.20;48.70;;;;;;5067347;28;20016;-62
2022/02/04 04:29:26;;;;;;;;;;;21.20;48.70;;;;;;5064538;28;19958;-63
2022/02/04 04:31:51;;;;;;;;;;;21.20;48.70;;;;;;5068944;28;19921;-63
2022/02/04 04:34:17;;;;;;;;;;;21.20;48.80;;;;;;5067967;28;19912;-64
2022/02/04 04:36:43;;;;;;;;;;;21.20;48.80;;;;;;5069542;28;19924;-63
2022/02/04 04:41:54;;;;;;;;;;;21.20;48.80;;;;;;5066208;28;19916;-64
2022/02/04 05:30:15;;;;;;;;;;;21.10;49.00;;;;;;5063489;28;19928;-63
2022/02/04 05:32:40;;;;;;;;;;;21.10;49.10;;;;;;5067920;28;19918;-65
2022/02/04 05:35:07;;;;;;;;;;;21.10;49.10;;;;;;5064809;28;19955;-65
2022/02/04 05:37:34;;;;;;;;;;;21.10;49.10;;;;;;5066207;28;20046;-66
2022/02/04 05:40:06;;;;;;;;;;;21.10;49.10;;;;;;5064570;28;19979;-66
2022/02/04 05:42:35;;;;;;;;;;;21.10;49.10;;;;;;5065814;28;20003;-65
2022/02/04 05:45:12;;;;;;;;;;;21.00;49.10;;;;;;5061203;28;19917;-66
2022/02/04 05:47:38;;;;;;;;;;;21.00;49.10;;;;;;5065638;28;19961;-63
2022/02/04 05:50:16;;;;;;;;;;;21.00;49.10;;;;;;5063627;28;19916;-63
2022/02/04 05:58:12;;;;;;;;;;;21.00;49.20;;;;;;5065198;28;19916;-65
2022/02/04 06:08:45;;;;;;;;;;;21.00;49.20;;;;;;5064330;28;20409;-63
2022/02/04 06:11:25;;;;;;;;;;;21.00;49.20;;;;;;5060975;28;19916;-61
2022/02/04 06:22:09;;;;;;;;;;;21.00;49.20;;;;;;5065862;28;19982;-67
2022/02/04 06:24:34;;;;;;;;;;;21.00;49.20;;;;;;5062589;28;19999;-65
2022/02/04 06:27:00;;;;;;;;;;;21.00;49.20;;;;;;5063281;28;19994;-62
2022/02/04 06:29:26;;;;;;;;;;;21.00;49.20;;;;;;5057943;28;19977;-63
2022/02/04 06:31:52;;;;;;;;;;;21.00;49.40;;;;;;5064666;28;19960;-64
2022/02/04 06:34:18;;;;;;;;;;;21.00;50.20;;;;;;5060163;28;19951;-61
2022/02/04 06:36:44;;;;;;;;;;;21.20;50.90;;;;;;5066228;28;20710;-61
2022/02/04 06:39:09;;;;;;;;;;;21.40;51.00;;;;;;5070355;28;19947;-62
2022/02/04 06:41:35;;;;;;;;;;;21.60;50.40;;;;;;5062705;28;21171;-64
2022/02/04 06:44:02;;;;;;;;;;;21.80;50.20;;;;;;5061145;28;19974;-63
2022/02/04 06:46:28;;;;;;;;;;;22.00;50.00;;;;;;5064412;28;19919;-60
2022/02/04 06:48:54;;;;;;;;;;;22.20;49.90;;;;;;5063999;28;19916;-61
2022/02/04 06:51:19;;;;;;;;;;;22.40;49.80;;;;;;5054811;28;19955;-61
2022/02/04 06:53:45;;;;;;;;;;;22.50;49.50;;;;;;5061583;28;19959;-66
2022/02/04 06:56:10;;;;;;;;;;;22.50;49.40;;;;;;5064604;28;20307;-64
2022/02/04 06:58:36;;;;;;;;;;;22.40;49.50;;;;;;5062636;28;19942;-66
2022/02/04 07:01:01;;;;;;;;;;;22.40;49.70;;;;;;5063970;28;20246;-61
2022/02/04 07:03:27;;;;;;;;;;;22.30;49.80;;;;;;5063302;28;19962;-64
2022/02/04 07:05:56;;;;;;;;;;;22.40;50.20;;;;;;5095283;27;20008;-60
2022/02/04 07:08:28;;;;;;;;;;;22.60;50.10;;;;;;5063558;28;19957;-61
2022/02/04 07:11:12;;;;;;;;;;;22.70;50.30;;;;;;5070106;28;19943;-64
2022/02/04 07:21:31;;;;;;;;;;;22.60;49.80;;;;;;5063055;28;19985;-64
2022/02/04 07:23:56;;;;;;;;;;;22.60;49.80;;;;;;5060580;28;20349;-62
2022/02/04 07:26:22;;;;;;;;;;;22.60;49.70;;;;;;5064502;28;20027;-63
2022/02/04 07:28:48;;;;;;;;;;;22.60;49.80;;;;;;5061907;28;19962;-66
2022/02/04 07:31:15;;;;;;;;;;;22.60;49.80;;;;;;5063986;28;19919;-64
2022/02/04 07:33:52;;;;;;;;;;;22.70;49.90;;;;;;5063175;28;20220;-64
2022/02/04 07:41:43;;;;;;;;;;;22.70;49.80;;;;;;5061492;28;19920;-66
2022/02/04 07:44:09;;;;;;;;;;;22.80;49.90;;;;;;5061847;28;20389;-63
2022/02/04 07:46:34;;;;;;;;;;;22.80;49.80;;;;;;5061505;28;20011;-63
2022/02/04 07:49:00;;;;;;;;;;;22.80;49.70;;;;;;5062858;28;20615;-67
2022/02/04 07:51:26;;;;;;;;;;;22.80;49.70;;;;;;5061838;28;19920;-62
2022/02/04 07:53:51;;;;;;;;;;;22.80;49.70;;;;;;5062751;28;19955;-61
2022/02/04 07:56:21;;;;;;;;;;;22.80;49.60;;;;;;5062542;28;20407;-63
2022/02/04 07:58:58;;;;;;;;;;;22.90;49.50;;;;;;5059449;28;20003;-62
2022/02/04 08:01:26;;;;;;;;;;;22.90;49.50;;;;;;5061675;28;19986;-62
2022/02/04 08:04:16;;;;;;;;;;;22.90;49.60;;;;;;5060437;28;20015;-63
2022/02/04 08:06:46;;;;;;;;;;;22.90;49.50;;;;;;5063544;28;20312;-64
2022/02/04 08:22:57;;;;;;;;;;;23.10;50.00;;;;;;5062795;28;19916;-63
2022/02/04 08:25:04;;;;;;;;;;;23.10;48.60;;;;;;5055211;28;20027;-64
2022/02/04 08:32:46;;;;;;;;;;;23.10;47.50;;;;;;5063571;28;20140;-64
2022/02/04 08:56:09;;;;;;;;;;;23.20;49.10;;;;;;5067141;28;20329;-61
2022/02/04 08:58:39;;;;;;;;;;;23.30;49.00;;;;;;5063041;28;19990;-63
2022/02/04 09:03:49;;;;;;;;;;;23.30;49.30;;;;;;5065469;28;19916;-64
2022/02/04 09:06:25;;;;;;;;;;;23.40;49.70;;;;;;5065245;28;19912;-67
2022/02/04 09:08:55;;;;;;;;;;;23.40;50.10;;;;;;5064902;28;19920;-67
2022/02/04 09:19:17;;;;;;;;;;;23.50;50.50;;;;;;5063167;28;19994;-62
2022/02/04 09:24:08;;;;;;;;;;;23.50;50.40;;;;;;5064156;28;19917;-63
2022/02/04 09:26:34;;;;;;;;;;;23.50;51.20;;;;;;5063982;28;20009;-63
2022/02/04 09:29:00;;;;;;;;;;;23.60;50.90;;;;;;5061083;28;19921;-63
2022/02/04 09:31:25;;;;;;;;;;;23.60;50.60;;;;;;5062619;28;20521;-63
2022/02/04 09:33:51;;;;;;;;;;;23.60;50.50;;;;;;5064896;28;20012;-64
2022/02/04 09:36:17;;;;;;;;;;;23.60;50.90;;;;;;5064935;28;19932;-59
2022/02/04 09:38:42;;;;;;;;;;;23.60;50.80;;;;;;5062982;28;20468;-65
2022/02/04 09:41:08;;;;;;;;;;;23.60;51.40;;;;;;5065896;28;20000;-62
2022/02/04 09:43:34;;;;;;;;;;;23.70;51.20;;;;;;5063302;28;20283;-65
2022/02/04 09:46:00;;;;;;;;;;;23.70;51.10;;;;;;5061268;28;20019;-61
2022/02/04 09:48:26;;;;;;;;;;;23.70;51.00;;;;;;5063209;28;20691;-64
2022/02/04 09:50:54;;;;;;;;;;;23.70;51.10;;;;;;5062737;28;19917;-66
2022/02/04 10:13:11;;;;;;;;;;;24.00;48.90;;;;;;5063004;28;19912;-63
2022/02/04 10:18:00;;;;;;;;;;;23.90;46.30;;;;;;5066449;28;19924;-61
2022/02/04 10:20:26;;;;;;;;;;;23.90;46.10;;;;;;5063022;28;19912;-61
2022/02/04 10:22:52;;;;;;;;;;;23.90;46.00;;;;;;5059044;28;19928;-64
2022/02/04 10:25:17;;;;;;;;;;;23.80;46.20;;;;;;5062310;28;20326;-62
2022/02/04 10:27:51;;;;;;;;;;;23.80;46.30;;;;;;5064551;28;20275;-64
2022/02/04 10:30:18;;;;;;;;;;;23.80;46.10;;;;;;5060703;28;19971;-63
2022/02/04 10:32:44;;;;;;;;;;;23.80;46.00;;;;;;5063679;28;19995;-66
2022/02/04 10:35:13;;;;;;;;;;;23.80;46.00;;;;;;5061404;28;19912;-61
2022/02/04 10:37:40;;;;;;;;;;;23.70;46.10;;;;;;5058085;28;20456;-65
2022/02/04 10:40:45;;;;;;;;;;;23.70;46.10;;;;;;5063415;28;20591;-64
2022/02/04 10:43:27;;;;;;;;;;;23.70;46.20;;;;;;5061422;28;20731;-65
2022/02/04 10:54:36;;;;;;;;;;;23.70;46.40;;;;;;5063925;28;20267;-61
2022/02/04 11:02:36;;;;;;;;;;;23.70;46.40;;;;;;5060578;28;19970;-66
2022/02/04 11:05:16;;;;;;;;;;;23.70;46.50;;;;;;5060561;28;19912;-60
2022/02/04 11:55:11;;;;;;;;;;;23.50;46.80;;;;;;5065756;28;20392;-65
2022/02/04 11:57:39;;;;;;;;;;;23.50;47.00;;;;;;5071595;28;19916;-61
2022/02/04 12:00:05;;;;;;;;;;;23.50;46.90;;;;;;5067667;28;20623;-64
2022/02/04 12:02:34;;;;;;;;;;;23.50;46.90;;;;;;5062067;28;19916;-63
2022/02/04 12:05:08;;;;;;;;;;;23.50;46.80;;;;;;5054943;28;19928;-65
2022/02/04 12:07:41;;;;;;;;;;;23.50;46.80;;;;;;5067080;28;19924;-63
2022/02/04 12:10:06;;;;;;;;;;;23.50;46.90;;;;;;5059357;28;19928;-63
2022/02/04 12:12:50;;;;;;;;;;;23.50;46.80;;;;;;5064923;28;19916;-62
2022/02/04 12:15:31;;;;;;;;;;;23.50;46.80;;;;;;5068607;28;19986;-62
2022/02/04 12:17:57;;;;;;;;;;;23.50;47.40;;;;;;5070393;28;19935;-63
2022/02/04 12:20:42;;;;;;;;;;;23.50;46.90;;;;;;5072702;28;19974;-62
2022/02/04 12:23:07;;;;;;;;;;;23.50;46.90;;;;;;5083047;28;19928;-64
2022/02/04 12:25:51;;;;;;;;;;;23.50;46.90;;;;;;5069508;28;19975;-64
2022/02/04 12:28:41;;;;;;;;;;;23.50;47.00;;;;;;5077480;28;19951;-62
2022/02/04 12:31:11;;;;;;;;;;;23.50;47.00;;;;;;5065611;28;19917;-62
2022/02/04 12:33:46;;;;;;;;;;;23.50;47.00;;;;;;5056855;28;19920;-66
2022/02/04 12:36:12;;;;;;;;;;;23.50;47.00;;;;;;5060483;28;19920;-64
2022/02/04 12:38:38;;;;;;;;;;;23.50;47.10;;;;;;5056150;28;21220;-65
2022/02/04 12:41:03;;;;;;;;;;;23.40;47.10;;;;;;5052946;28;19974;-62
2022/02/04 12:43:33;;;;;;;;;;;23.40;47.10;;;;;;5052666;28;19967;-63
2022/02/04 12:45:59;;;;;;;;;;;23.40;47.10;;;;;;5054172;28;19916;-64
2022/02/04 12:48:24;;;;;;;;;;;23.40;47.10;;;;;;5055805;28;19924;-64
2022/02/04 12:50:53;;;;;;;;;;;23.40;47.10;;;;;;5059171;28;20023;-65
2022/02/04 12:53:24;;;;;;;;;;;23.30;47.10;;;;;;5062213;28;19920;-65
2022/02/04 12:59:10;;;;;;;;;;;23.30;47.20;;;;;;5049847;28;19917;-64
2022/02/04 13:09:49;;;;;;;;;;;23.20;47.20;;;;;;5060885;28;20086;-61
2022/02/04 13:12:18;;;;;;;;;;;23.20;47.20;;;;;;5053401;28;19963;-64
2022/02/04 13:14:44;;;;;;;;;;;23.20;47.30;;;;;;5051610;28;19920;-61
2022/02/04 13:17:09;;;;;;;;;;;23.20;47.30;;;;;;5053766;28;19951;-61
2022/02/04 13:19:35;;;;;;;;;;;23.10;47.20;;;;;;5055437;28;19916;-65
2022/02/04 13:22:01;;;;;;;;;;;23.10;47.30;;;;;;5056037;28;19917;-65
2022/02/04 13:24:26;;;;;;;;;;;23.10;47.30;;;;;;5059173;28;20612;-66
2022/02/04 13:26:52;;;;;;;;;;;23.10;47.40;;;;;;5059960;28;19952;-63
2022/02/04 13:29:23;;;;;;;;;;;23.10;47.40;;;;;;5059519;28;20011;-63
2022/02/04 13:31:49;;;;;;;;;;;23.10;47.40;;;;;;5061401;28;19920;-64
2022/02/04 13:34:15;;;;;;;;;;;23.10;47.40;;;;;;5064426;28;19986;-64
2022/02/04 13:36:50;;;;;;;;;;;23.00;47.40;;;;;;5063514;28;19924;-66
2022/02/04 13:47:22;;;;;;;;;;;22.90;47.40;;;;;;5063257;28;19952;-61
2022/02/04 13:50:01;;;;;;;;;;;22.90;47.50;;;;;;5062557;28;19917;-63
2022/02/04 13:55:36;;;;;;;;;;;22.90;47.50;;;;;;5062802;28;19986;-61
2022/02/04 14:03:53;;;;;;;;;;;22.90;47.70;;;;;;5063767;28;19917;-66
2022/02/04 14:06:22;;;;;;;;;;;22.90;47.70;;;;;;5062782;28;20023;-64
2022/02/04 14:09:06;;;;;;;;;;;22.90;47.70;;;;;;5061465;28;19920;-64
2022/02/04 14:11:35;;;;;;;;;;;22.80;47.70;;;;;;5062464;28;20043;-64
2022/02/04 14:14:07;;;;;;;;;;;22.80;47.70;;;;;;5056779;28;19928;-61
2022/02/04 14:16:32;;;;;;;;;;;22.80;47.70;;;;;;5063368;28;19927;-63
2022/02/04 14:18:58;;;;;;;;;;;22.80;47.70;;;;;;5060833;28;19920;-61
2022/02/04 14:21:23;;;;;;;;;;;22.80;47.80;;;;;;5063549;28;19981;-66
2022/02/04 14:23:53;;;;;;;;;;;22.80;47.80;;;;;;5062025;28;20431;-64
2022/02/04 14:26:34;;;;;;;;;;;22.80;47.80;;;;;;5059844;28;20421;-66
2022/02/04 14:29:07;;;;;;;;;;;22.70;47.80;;;;;;5057939;28;19916;-64
2022/02/04 14:31:43;;;;;;;;;;;22.70;47.90;;;;;;5059398;28;19939;-66
2022/02/04 15:01:45;;;;;;;;;;;22.80;47.80;;;;;;5054798;28;19970;-66
2022/02/04 15:03:42;;;;;;;;;;;22.80;47.70;;;;;;5042950;28;19912;-64
2022/02/04 15:06:21;;;;;;;;;;;22.80;47.70;;;;;;5056373;28;19955;-64
2022/02/04 15:08:48;;;;;;;;;;;22.90;47.80;;;;;;5053459;28;19991;-62
2022/02/04 15:11:17;;;;;;;;;;;22.90;47.80;;;;;;5054748;28;19923;-65
2022/02/04 15:13:43;;;;;;;;;;;22.90;47.80;;;;;;5052510;28;19917;-63
2022/02/04 15:16:09;;;;;;;;;;;22.90;47.70;;;;;;5056974;28;20023;-62
2022/02/04 15:18:35;;;;;;;;;;;22.90;47.70;;;;;;5055411;28;19965;-65
2022/02/04 15:21:01;;;;;;;;;;;22.90;47.60;;;;;;5057024;28;19920;-64
2022/02/04 15:23:27;;;;;;;;;;;22.90;47.60;;;;;;5056756;28;19927;-65
2022/02/04 15:25:55;;;;;;;;;;;22.90;47.60;;;;;;5057206;28;19916;-61
2022/02/04 15:30:58;;;;;;;;;;;22.90;47.60;;;;;;5057403;28;20011;-63
2022/02/04 15:33:28;;;;;;;;;;;22.90;47.60;;;;;;5058914;28;19996;-63
2022/02/04 15:35:54;;;;;;;;;;;22.90;47.60;;;;;;5059506;28;19916;-61
2022/02/04 15:38:20;;;;;;;;;;;22.90;47.60;;;;;;5059550;28;19928;-63
2022/02/04 15:40:46;;;;;;;;;;;22.90;47.60;;;;;;5058479;28;20629;-62
2022/02/04 15:43:13;;;;;;;;;;;22.90;47.70;;;;;;5057071;28;19967;-61
2022/02/04 16:06:09;;;;;;;;;;;22.80;47.60;;;;;;5065637;28;19920;-64
2022/02/04 16:08:35;;;;;;;;;;;22.70;47.60;;;;;;5061758;28;19916;-65
2022/02/04 16:11:14;;;;;;;;;;;22.70;47.60;;;;;;5061855;28;19917;-61
2022/02/04 16:13:49;;;;;;;;;;;22.70;47.70;;;;;;5061312;28;19920;-61
2022/02/04 16:18:55;;;;;;;;;;;22.70;47.70;;;;;;5062457;28;19920;-62
2022/02/04 16:21:27;;;;;;;;;;;22.70;47.70;;;;;;5055247;28;19985;-66
2022/02/04 16:28:52;;;;;;;;;;;22.60;47.80;;;;;;5062338;28;20293;-63
2022/02/04 16:31:18;;;;;;;;;;;22.60;47.80;;;;;;5059648;28;19973;-66
2022/02/04 16:33:45;;;;;;;;;;;22.60;47.80;;;;;;5061534;28;19927;-65
2022/02/04 16:36:15;;;;;;;;;;;22.60;48.10;;;;;;5060783;28;20023;-65
2022/02/04 16:38:43;;;;;;;;;;;22.60;48.00;;;;;;5060586;28;19924;-61
2022/02/04 16:41:11;;;;;;;;;;;22.60;48.00;;;;;;5059760;28;19920;-63
2022/02/04 16:43:38;;;;;;;;;;;22.60;48.10;;;;;;5057834;28;19916;-61
2022/02/04 16:46:06;;;;;;;;;;;22.60;48.10;;;;;;5059930;28;19925;-67
2022/02/04 16:48:35;;;;;;;;;;;22.60;48.10;;;;;;5062599;28;20333;-62
2022/02/04 16:51:01;;;;;;;;;;;22.60;48.10;;;;;;5058282;28;19929;-63
2022/02/04 16:53:30;;;;;;;;;;;22.60;48.10;;;;;;5063940;28;20199;-63
2022/02/04 16:55:55;;;;;;;;;;;22.60;48.10;;;;;;5058609;28;19963;-65
2022/02/04 16:58:21;;;;;;;;;;;22.50;48.10;;;;;;5057444;28;19984;-65
2022/02/04 17:00:46;;;;;;;;;;;22.50;48.00;;;;;;5060781;28;19916;-62
2022/02/04 17:03:12;;;;;;;;;;;22.50;48.00;;;;;;5058648;28;19920;-63
2022/02/04 17:05:49;;;;;;;;;;;22.50;48.00;;;;;;5062176;28;19923;-66
2022/02/04 17:08:22;;;;;;;;;;;22.50;48.00;;;;;;5065720;28;19916;-66
2022/02/04 17:10:53;;;;;;;;;;;22.50;48.00;;;;;;5064034;28;19916;-63
2022/02/04 17:13:23;;;;;;;;;;;22.50;48.00;;;;;;5054857;28;21104;-66
2022/02/04 17:15:48;;;;;;;;;;;22.50;48.00;;;;;;5059709;28;19927;-62
2022/02/04 17:18:14;;;;;;;;;;;22.50;48.00;;;;;;5062067;28;19920;-66
2022/02/04 17:20:40;;;;;;;;;;;22.50;48.00;;;;;;5060063;28;20367;-66
2022/02/04 17:23:09;;;;;;;;;;;22.40;48.00;;;;;;5062847;28;19924;-65
2022/02/04 17:25:35;;;;;;;;;;;22.40;48.50;;;;;;5062741;28;19916;-65
2022/02/04 17:28:01;;;;;;;;;;;22.40;48.00;;;;;;5060450;28;19924;-62
2022/02/04 17:30:27;;;;;;;;;;;22.40;48.00;;;;;;5058624;28;20303;-62
2022/02/04 17:32:52;;;;;;;;;;;22.40;48.00;;;;;;5059820;28;19931;-65
2022/02/04 17:35:19;;;;;;;;;;;22.40;48.00;;;;;;5058741;28;20943;-61
2022/02/04 17:37:45;;;;;;;;;;;22.40;48.00;;;;;;5058128;28;20001;-65
2022/02/04 17:40:12;;;;;;;;;;;22.30;48.00;;;;;;5062248;28;19916;-66
2022/02/04 17:42:40;;;;;;;;;;;22.30;47.90;;;;;;5062910;28;19916;-64
2022/02/04 17:45:09;;;;;;;;;;;22.30;48.00;;;;;;5057774;28;19920;-63
2022/02/04 17:47:35;;;;;;;;;;;22.30;48.00;;;;;;5058063;28;20553;-62
2022/02/04 17:50:15;;;;;;;;;;;22.30;48.00;;;;;;5058851;28;19951;-65
2022/02/04 17:52:45;;;;;;;;;;;22.30;48.00;;;;;;5059226;28;19920;-62
2022/02/04 17:55:15;;;;;;;;;;;22.30;48.00;;;;;;5058825;28;19930;-65
2022/02/04 18:03:30;;;;;;;;;;;22.20;48.00;;;;;;5061531;28;19924;-65
2022/02/04 18:08:28;;;;;;;;;;;22.20;48.00;;;;;;5061184;28;20028;-65
2022/02/04 18:10:54;;;;;;;;;;;22.10;47.90;;;;;;5058875;28;20351;-62
2022/02/04 18:13:20;;;;;;;;;;;22.10;47.90;;;;;;5059225;28;20390;-65
2022/02/04 18:15:46;;;;;;;;;;;22.10;47.90;;;;;;5059946;28;19920;-65
2022/02/04 18:18:23;;;;;;;;;;;22.10;48.00;;;;;;5059852;28;19947;-66
2022/02/04 18:20:50;;;;;;;;;;;22.10;48.00;;;;;;5058470;28;20006;-62
2022/02/04 18:23:20;;;;;;;;;;;22.10;48.00;;;;;;5060989;28;19917;-65
2022/02/04 18:25:49;;;;;;;;;;;22.10;48.00;;;;;;5060620;28;19923;-62
2022/02/04 18:28:15;;;;;;;;;;;22.00;48.00;;;;;;5059108;28;20714;-63
2022/02/04 18:30:41;;;;;;;;;;;22.00;48.00;;;;;;5059172;28;19935;-66
2022/02/04 18:33:06;;;;;;;;;;;22.00;48.10;;;;;;5058610;28;20331;-65
2022/02/04 18:35:32;;;;;;;;;;;22.00;48.10;;;;;;5059480;28;20025;-63
2022/02/04 18:38:29;;;;;;;;;;;22.00;48.10;;;;;;5066313;28;20738;-62
2022/02/04 18:46:01;;;;;;;;;;;22.00;48.20;;;;;;5056307;28;19939;-63
2022/02/04 18:48:29;;;;;;;;;;;21.90;48.10;;;;;;5058880;28;20031;-65
2022/02/04 18:56:15;;;;;;;;;;;21.90;48.20;;;;;;5057181;28;20276;-62
2022/02/04 18:58:41;;;;;;;;;;;21.90;48.20;;;;;;5058046;28;20037;-65
2022/02/04 19:01:07;;;;;;;;;;;21.90;48.20;;;;;;5056843;28;20567;-66
2022/02/04 19:03:44;;;;;;;;;;;21.90;48.20;;;;;;5056716;28;19981;-64
2022/02/04 19:06:18;;;;;;;;;;;21.80;48.10;;;;;;5056767;28;19920;-63
2022/02/04 19:08:55;;;;;;;;;;;21.90;48.20;;;;;;5059327;28;19924;-66
2022/02/04 19:11:26;;;;;;;;;;;21.90;48.30;;;;;;5057948;28;19923;-62
2022/02/04 19:14:02;;;;;;;;;;;21.80;48.20;;;;;;5056766;28;19916;-65
2022/02/04 19:16:44;;;;;;;;;;;21.80;48.10;;;;;;5057710;28;19913;-62
2022/02/04 19:19:22;;;;;;;;;;;21.80;48.20;;;;;;5059523;28;20392;-63
2022/02/04 19:24:45;;;;;;;;;;;21.80;48.10;;;;;;5043618;28;19917;-66
2022/02/04 19:27:10;;;;;;;;;;;21.80;48.00;;;;;;5062314;28;20051;-62
2022/02/04 19:29:42;;;;;;;;;;;21.80;48.10;;;;;;5057257;28;20019;-64
2022/02/04 19:32:08;;;;;;;;;;;21.80;48.10;;;;;;5056275;28;20580;-65
2022/02/04 19:34:33;;;;;;;;;;;21.80;48.20;;;;;;5056688;28;19920;-62
2022/02/04 19:36:59;;;;;;;;;;;21.80;48.20;;;;;;5054367;28;19920;-62
2022/02/04 19:39:29;;;;;;;;;;;21.80;48.20;;;;;;5056143;28;20224;-65
2022/02/04 19:42:06;;;;;;;;;;;21.80;48.20;;;;;;5058457;28;20015;-66
2022/02/04 19:44:33;;;;;;;;;;;21.80;48.30;;;;;;5056418;28;19924;-65
2022/02/04 19:47:03;;;;;;;;;;;21.80;48.20;;;;;;5058953;28;19920;-66
2022/02/04 19:49:40;;;;;;;;;;;21.80;48.30;;;;;;5056967;28;19916;-65
2022/02/04 19:52:26;;;;;;;;;;;21.70;48.20;;;;;;5058994;28;20027;-65
2022/02/04 20:26:49;;;;;;;;;;;21.60;48.50;;;;;;5056187;28;19916;-64
2022/02/04 20:29:15;;;;;;;;;;;21.60;48.50;;;;;;5056046;28;20321;-65
2022/02/04 20:31:40;;;;;;;;;;;21.60;48.60;;;;;;5054329;28;19926;-65
2022/02/04 20:34:06;;;;;;;;;;;21.60;48.50;;;;;;5057085;28;19997;-63
2022/02/04 20:36:31;;;;;;;;;;;21.60;48.50;;;;;;5057388;28;20690;-64
2022/02/04 20:38:57;;;;;;;;;;;21.60;48.50;;;;;;5057415;28;19932;-63
2022/02/04 20:41:26;;;;;;;;;;;21.60;48.50;;;;;;5059949;28;19916;-63
2022/02/04 20:43:52;;;;;;;;;;;21.60;48.50;;;;;;5058039;28;19982;-66
2022/02/04 20:46:17;;;;;;;;;;;21.50;48.50;;;;;;5058630;28;19921;-65
2022/02/04 20:48:43;;;;;;;;;;;21.60;48.50;;;;;;5060068;28;20420;-65
2022/02/04 20:51:10;;;;;;;;;;;21.50;48.50;;;;;;5060980;28;19921;-65
2022/02/04 20:53:36;;;;;;;;;;;21.60;48.50;;;;;;5060588;28;19924;-64
2022/02/04 20:56:02;;;;;;;;;;;21.50;48.40;;;;;;5062769;28;19923;-63
2022/02/04 20:58:28;;;;;;;;;;;21.60;48.50;;;;;;5061217;28;19920;-66
2022/02/04 21:00:54;;;;;;;;;;;21.50;48.50;;;;;;5059873;28;19998;-64
2022/02/04 21:03:20;;;;;;;;;;;21.50;48.50;;;;;;5060742;28;19917;-65
2022/02/04 21:05:54;;;;;;;;;;;21.50;48.50;;;;;;5061053;28;19917;-63
2022/02/04 21:08:39;;;;;;;;;;;21.50;48.50;;;;;;5059243;28;20642;-65
2022/02/04 21:13:52;;;;;;;;;;;21.50;48.50;;;;;;5060020;28;20768;-63
2022/02/04 21:16:22;;;;;;;;;;;21.50;48.50;;;;;;5059240;28;19913;-65
2022/02/04 21:18:49;;;;;;;;;;;21.50;48.50;;;;;;5059380;28;19928;-65
2022/02/04 21:21:15;;;;;;;;;;;21.50;48.40;;;;;;5056754;28;19924;-62
2022/02/04 21:23:41;;;;;;;;;;;21.50;48.50;;;;;;5055745;28;20054;-66
2022/02/04 21:26:07;;;;;;;;;;;21.50;48.50;;;;;;5061310;28;20355;-62
2022/02/04 21:28:33;;;;;;;;;;;21.40;48.40;;;;;;5060707;28;20006;-65
2022/02/04 21:30:59;;;;;;;;;;;21.50;48.50;;;;;;5062462;28;19924;-64
2022/02/04 21:38:41;;;;;;;;;;;21.40;48.50;;;;;;5058441;28;19986;-65
2022/02/04 21:41:06;;;;;;;;;;;21.50;48.50;;;;;;5057392;28;20022;-62
2022/02/04 21:43:32;;;;;;;;;;;21.40;48.50;;;;;;5059985;28;20019;-65
2022/02/04 21:46:06;;;;;;;;;;;21.40;48.40;;;;;;5060387;28;20422;-65
2022/02/04 21:48:31;;;;;;;;;;;21.40;48.50;;;;;;5062744;28;19916;-62
2022/02/04 21:50:58;;;;;;;;;;;21.40;48.40;;;;;;5064829;28;20335;-64
2022/02/04 21:53:23;;;;;;;;;;;21.40;48.40;;;;;;5063958;28;19916;-62
2022/02/04 21:55:49;;;;;;;;;;;21.40;48.40;;;;;;5065463;28;19924;-62
2022/02/04 21:58:15;;;;;;;;;;;21.40;48.50;;;;;;5063854;28;19974;-65
2022/02/04 22:00:41;;;;;;;;;;;21.40;48.40;;;;;;5062870;28;19916;-66